Terminal Aerodrome Forecast
Issued by NWS

Current Version | Previous Version | Graphics & Text | Print | Product List | Glossary On
Versions: 1 2 3 4 5 6 7 8 9 10 11 12 13 14 15 16 17 18 19 20 21 22 23
978
FTUS41 KILN 200537
TAFLUK
TAF
KLUK 200537Z 2006/2106 VRB03KT P6SM SCT250
     FM200700 00000KT 4SM BR BKN250
     FM200900 00000KT 2SM BR BKN250
     FM201300 00000KT P6SM BKN250
     FM201600 24006KT P6SM FEW040 BKN200
     FM210000 VRB03KT P6SM SCT150=

USA.gov is the U.S. government's official web portal to all federal, state and local government web resources and services.